Time;durP1;ratioP1;P1;durP2;ratioP2;P2;SDS_P1;SDS_P2;PMS_P1;PMS_P2;Temp;Humidity;BMP_temperature;BMP_pressure;BME280_temperature;BME280_humidity;BME280_pressure;Samples;Min_cycle;Max_cycle;Signal;HPM_P1;HPM_P2
2022/03/17 00:00:15;;;;;;;11.07;7.00;;;;;;;;;;5038925;28;20270;-64
2022/03/17 00:02:43;;;;;;;14.80;6.87;;;;;;;;;;5038475;28;20701;-64
2022/03/17 00:05:12;;;;;;;12.77;6.63;;;;;;;;;;5039080;28;20290;-64
2022/03/17 00:07:41;;;;;;;12.50;6.50;;;;;;;;;;5038172;28;20203;-64
2022/03/17 00:10:11;;;;;;;12.50;6.47;;;;;;;;;;5038755;28;20763;-64
2022/03/17 00:12:39;;;;;;;10.27;6.27;;;;;;;;;;5038813;28;20286;-64
2022/03/17 00:15:07;;;;;;;13.57;6.80;;;;;;;;;;5038579;28;20239;-64
2022/03/17 00:17:36;;;;;;;11.33;6.97;;;;;;;;;;5038607;28;20239;-64
2022/03/17 00:20:06;;;;;;;8.30;6.90;;;;;;;;;;5038303;28;20215;-64
2022/03/17 00:22:34;;;;;;;13.10;7.07;;;;;;;;;;5038315;28;20310;-64
2022/03/17 00:25:02;;;;;;;13.67;7.33;;;;;;;;;;5038217;28;20258;-64
2022/03/17 00:27:31;;;;;;;13.33;7.50;;;;;;;;;;5038314;28;20250;-64
2022/03/17 00:29:59;;;;;;;15.50;7.37;;;;;;;;;;5038343;28;20215;-64
2022/03/17 00:32:27;;;;;;;10.80;7.43;;;;;;;;;;5038175;28;20314;-64
2022/03/17 00:37:40;;;;;;;14.43;6.87;;;;;;;;;;5031037;28;20298;-64
2022/03/17 00:40:09;;;;;;;11.07;7.13;;;;;;;;;;5037859;28;20246;-64
2022/03/17 00:42:39;;;;;;;11.13;6.53;;;;;;;;;;5038312;28;20239;-64
2022/03/17 00:45:09;;;;;;;13.77;7.50;;;;;;;;;;5038263;28;20282;-64
2022/03/17 00:47:37;;;;;;;10.33;6.80;;;;;;;;;;5037694;28;20711;-64
2022/03/17 00:50:06;;;;;;;17.30;8.20;;;;;;;;;;5038189;28;20212;-64
2022/03/17 00:52:34;;;;;;;11.77;7.10;;;;;;;;;;5037618;28;20636;-64
2022/03/17 00:55:04;;;;;;;12.60;6.40;;;;;;;;;;5037867;28;20290;-64
2022/03/17 00:57:32;;;;;;;14.37;7.50;;;;;;;;;;5037725;28;20289;-64
2022/03/17 01:00:01;;;;;;;14.13;7.50;;;;;;;;;;5037984;28;20235;-64
2022/03/17 01:02:29;;;;;;;10.20;6.73;;;;;;;;;;5038069;28;20271;-64
2022/03/17 01:04:58;;;;;;;14.53;7.60;;;;;;;;;;5037589;28;20232;-64
2022/03/17 01:07:26;;;;;;;11.00;6.67;;;;;;;;;;5037807;28;20235;-64
2022/03/17 01:09:54;;;;;;;9.50;7.00;;;;;;;;;;5037793;28;20270;-65
2022/03/17 01:12:22;;;;;;;12.30;7.10;;;;;;;;;;5037588;28;20574;-64
2022/03/17 01:14:50;;;;;;;12.60;7.80;;;;;;;;;;5037778;28;20267;-64
2022/03/17 01:17:19;;;;;;;10.50;6.90;;;;;;;;;;5037585;28;20246;-64
2022/03/17 01:19:47;;;;;;;10.77;7.07;;;;;;;;;;5036293;28;20659;-65
2022/03/17 01:22:16;;;;;;;16.80;6.73;;;;;;;;;;5037483;28;20290;-64
2022/03/17 01:24:45;;;;;;;11.97;8.77;;;;;;;;;;5036274;28;20287;-64
2022/03/17 01:27:13;;;;;;;13.33;7.90;;;;;;;;;;5035053;28;20306;-64
2022/03/17 01:29:41;;;;;;;15.90;7.30;;;;;;;;;;5037319;28;20238;-64
2022/03/17 01:32:09;;;;;;;9.90;6.90;;;;;;;;;;5037528;28;20286;-64
2022/03/17 01:34:38;;;;;;;12.80;7.07;;;;;;;;;;5037250;28;20241;-64
2022/03/17 01:37:07;;;;;;;9.30;7.00;;;;;;;;;;5037172;28;20255;-64
2022/03/17 01:39:35;;;;;;;16.43;6.90;;;;;;;;;;5037408;28;20235;-64
2022/03/17 01:42:04;;;;;;;12.73;7.63;;;;;;;;;;5037118;28;20286;-64
2022/03/17 01:44:32;;;;;;;16.73;7.80;;;;;;;;;;5037542;28;20399;-64
2022/03/17 01:49:47;;;;;;;10.20;7.63;;;;;;;;;;5037167;28;20285;-64
2022/03/17 01:52:15;;;;;;;12.67;7.20;;;;;;;;;;5037291;28;20238;-64
2022/03/17 01:54:43;;;;;;;11.43;7.97;;;;;;;;;;5037315;28;20286;-64
2022/03/17 01:57:12;;;;;;;12.50;6.60;;;;;;;;;;5037312;28;20318;-64
2022/03/17 01:59:40;;;;;;;15.40;7.70;;;;;;;;;;5037334;28;20245;-64
2022/03/17 02:02:09;;;;;;;12.43;7.50;;;;;;;;;;5037120;28;20208;-64
2022/03/17 02:04:38;;;;;;;13.83;7.30;;;;;;;;;;5037111;28;20223;-64
2022/03/17 02:07:07;;;;;;;12.47;8.03;;;;;;;;;;5037119;28;20672;-64
2022/03/17 02:09:36;;;;;;;11.30;7.80;;;;;;;;;;5036976;28;20275;-64
2022/03/17 02:14:50;;;;;;;12.60;8.80;;;;;;;;;;5037118;28;20299;-64
2022/03/17 02:17:19;;;;;;;14.87;8.17;;;;;;;;;;5037118;28;20303;-64
2022/03/17 02:19:47;;;;;;;14.50;8.03;;;;;;;;;;5036666;28;20211;-64
2022/03/17 02:22:17;;;;;;;13.30;8.60;;;;;;;;;;5022540;28;20295;-64
2022/03/17 02:27:38;;;;;;;17.77;8.50;;;;;;;;;;5035897;28;20612;-64
2022/03/17 02:30:07;;;;;;;12.73;8.90;;;;;;;;;;5036459;28;20679;-65
2022/03/17 02:32:35;;;;;;;11.30;8.70;;;;;;;;;;5040006;28;20239;-64
2022/03/17 02:35:04;;;;;;;13.13;8.60;;;;;;;;;;5040715;28;20242;-64
2022/03/17 02:37:33;;;;;;;11.60;7.83;;;;;;;;;;5040459;28;20246;-64
2022/03/17 02:40:04;;;;;;;15.30;8.47;;;;;;;;;;5040210;28;20581;-64
2022/03/17 02:42:32;;;;;;;12.07;7.53;;;;;;;;;;5040440;28;20675;-64
2022/03/17 02:45:00;;;;;;;13.33;8.33;;;;;;;;;;5039996;28;20322;-64
2022/03/17 02:47:28;;;;;;;11.23;7.97;;;;;;;;;;5039934;28;20266;-64
2022/03/17 02:49:57;;;;;;;11.40;7.80;;;;;;;;;;5040157;28;20235;-64
2022/03/17 02:52:25;;;;;;;10.63;7.43;;;;;;;;;;5038672;28;20242;-64
2022/03/17 02:54:53;;;;;;;16.50;8.60;;;;;;;;;;5038492;28;20287;-64
2022/03/17 02:57:23;;;;;;;12.07;7.90;;;;;;;;;;5038923;28;20243;-64
2022/03/17 02:59:51;;;;;;;12.43;7.70;;;;;;;;;;5038717;28;20203;-64
2022/03/17 03:02:20;;;;;;;13.87;8.83;;;;;;;;;;5038827;28;20211;-64
2022/03/17 03:04:48;;;;;;;13.80;8.17;;;;;;;;;;5038764;28;20223;-64
2022/03/17 03:07:16;;;;;;;12.30;8.07;;;;;;;;;;5039702;28;20310;-64
2022/03/17 03:09:44;;;;;;;11.43;7.33;;;;;;;;;;5039961;28;20290;-64
2022/03/17 03:12:23;;;;;;;13.97;7.67;;;;;;;;;;5040091;28;20275;-64
2022/03/17 03:14:51;;;;;;;11.40;6.80;;;;;;;;;;5039981;28;20239;-64
2022/03/17 03:17:20;;;;;;;9.57;6.47;;;;;;;;;;5039908;28;20262;-64
2022/03/17 03:19:49;;;;;;;13.17;8.00;;;;;;;;;;5039639;28;20207;-64
2022/03/17 03:22:18;;;;;;;13.97;7.43;;;;;;;;;;5039568;28;20207;-64
2022/03/17 03:24:46;;;;;;;14.33;7.93;;;;;;;;;;5039512;28;20665;-64
2022/03/17 03:27:14;;;;;;;11.93;7.30;;;;;;;;;;5039318;28;20259;-64
2022/03/17 03:29:44;;;;;;;11.67;7.50;;;;;;;;;;5039690;28;20243;-64
2022/03/17 03:32:15;;;;;;;13.90;7.70;;;;;;;;;;5039729;28;20235;-64
2022/03/17 03:34:45;;;;;;;14.23;8.07;;;;;;;;;;5039475;28;20307;-64
2022/03/17 03:37:25;;;;;;;16.60;7.90;;;;;;;;;;5039513;28;20258;-64
2022/03/17 03:39:54;;;;;;;20.33;8.33;;;;;;;;;;5039401;28;20218;-64
2022/03/17 03:42:22;;;;;;;13.77;7.63;;;;;;;;;;5038877;28;20297;-64
2022/03/17 03:44:52;;;;;;;16.37;7.80;;;;;;;;;;5039097;28;20319;-64
2022/03/17 03:47:21;;;;;;;8.37;6.90;;;;;;;;;;5038939;28;20667;-64
2022/03/17 03:49:51;;;;;;;15.33;8.20;;;;;;;;;;5038954;28;20211;-64
2022/03/17 03:52:19;;;;;;;16.50;8.57;;;;;;;;;;5039012;28;20638;-64
2022/03/17 03:58:15;;;;;;;14.57;8.27;;;;;;;;;;5038419;28;20187;-64
2022/03/17 04:00:44;;;;;;;15.33;7.87;;;;;;;;;;5038900;28;20721;-64
2022/03/17 04:03:12;;;;;;;19.03;8.83;;;;;;;;;;5039125;28;20211;-64
2022/03/17 04:05:40;;;;;;;14.20;8.80;;;;;;;;;;5039354;28;20232;-64
2022/03/17 04:08:09;;;;;;;13.47;8.00;;;;;;;;;;5038901;28;20279;-64
2022/03/17 04:10:37;;;;;;;15.77;8.50;;;;;;;;;;5025707;28;20288;-64
2022/03/17 04:13:05;;;;;;;20.23;8.47;;;;;;;;;;5038996;28;20290;-64
2022/03/17 04:15:33;;;;;;;15.43;8.23;;;;;;;;;;5038670;28;20310;-64
2022/03/17 04:18:02;;;;;;;15.23;8.50;;;;;;;;;;5038335;28;20211;-64
2022/03/17 04:20:30;;;;;;;14.33;8.07;;;;;;;;;;5038588;28;20621;-64
2022/03/17 04:22:58;;;;;;;15.57;8.63;;;;;;;;;;5038572;28;20204;-64
2022/03/17 04:25:27;;;;;;;16.47;9.40;;;;;;;;;;5038381;28;20665;-64
2022/03/17 04:27:56;;;;;;;14.17;8.10;;;;;;;;;;5038746;28;20314;-64
2022/03/17 04:30:24;;;;;;;15.73;7.50;;;;;;;;;;5038226;28;20666;-64
2022/03/17 04:32:52;;;;;;;12.23;7.47;;;;;;;;;;5038198;28;20290;-64
2022/03/17 04:35:21;;;;;;;12.57;7.33;;;;;;;;;;5038197;28;20255;-64
2022/03/17 04:37:49;;;;;;;17.13;8.23;;;;;;;;;;5038383;28;20239;-64
2022/03/17 04:40:17;;;;;;;14.63;7.97;;;;;;;;;;5038360;28;20290;-64
2022/03/17 04:42:45;;;;;;;11.80;7.27;;;;;;;;;;5038257;28;20287;-64
2022/03/17 04:45:13;;;;;;;14.77;7.20;;;;;;;;;;5038238;28;20323;-64
2022/03/17 04:47:41;;;;;;;16.37;7.57;;;;;;;;;;5037587;28;20295;-64
2022/03/17 04:50:10;;;;;;;13.93;7.03;;;;;;;;;;5038219;28;20246;-64
2022/03/17 04:55:25;;;;;;;10.93;6.73;;;;;;;;;;5037716;28;20652;-64
2022/03/17 04:57:53;;;;;;;10.50;6.77;;;;;;;;;;5037978;28;20274;-64
2022/03/17 05:00:21;;;;;;;14.00;7.03;;;;;;;;;;5038063;28;20248;-64
2022/03/17 05:02:49;;;;;;;12.63;6.10;;;;;;;;;;5037535;28;20640;-64
2022/03/17 05:05:17;;;;;;;15.60;7.27;;;;;;;;;;5037755;28;20238;-64
2022/03/17 05:07:47;;;;;;;10.93;6.63;;;;;;;;;;5037992;28;20238;-64
2022/03/17 05:10:15;;;;;;;10.30;6.27;;;;;;;;;;5037802;28;20246;-64
2022/03/17 05:12:43;;;;;;;18.03;7.47;;;;;;;;;;5037938;28;20277;-64
2022/03/17 05:15:11;;;;;;;13.87;6.37;;;;;;;;;;5037844;28;20286;-64
2022/03/17 05:17:39;;;;;;;16.43;7.50;;;;;;;;;;5037582;28;20275;-65
2022/03/17 05:20:10;;;;;;;14.10;6.77;;;;;;;;;;5037638;28;20714;-65
2022/03/17 05:22:38;;;;;;;16.93;9.53;;;;;;;;;;5037266;28;20231;-65
2022/03/17 05:25:08;;;;;;;12.93;6.53;;;;;;;;;;5037426;28;20243;-65
2022/03/17 05:27:36;;;;;;;13.00;7.23;;;;;;;;;;5037712;28;20239;-65
2022/03/17 05:30:05;;;;;;;13.37;6.57;;;;;;;;;;5037696;28;20238;-64
2022/03/17 05:32:34;;;;;;;14.93;6.93;;;;;;;;;;5035023;28;20290;-67
2022/03/17 05:35:02;;;;;;;14.27;7.07;;;;;;;;;;5034550;28;20685;-65
2022/03/17 05:37:30;;;;;;;12.00;6.10;;;;;;;;;;5036278;28;20200;-65
2022/03/17 05:39:58;;;;;;;11.67;6.50;;;;;;;;;;5032565;28;20752;-65
2022/03/17 05:42:27;;;;;;;15.27;6.53;;;;;;;;;;5036678;28;20236;-66
2022/03/17 05:44:55;;;;;;;11.20;5.83;;;;;;;;;;5036302;28;20693;-65
2022/03/17 05:47:23;;;;;;;16.50;6.47;;;;;;;;;;5036427;28;20239;-66
2022/03/17 05:49:52;;;;;;;14.50;6.40;;;;;;;;;;5037075;28;20231;-66
2022/03/17 05:52:20;;;;;;;15.80;5.60;;;;;;;;;;5034998;28;20238;-66
2022/03/17 05:54:48;;;;;;;12.93;5.90;;;;;;;;;;5036671;28;20283;-66
2022/03/17 05:57:16;;;;;;;19.17;6.77;;;;;;;;;;5036379;28;20243;-66
2022/03/17 05:59:45;;;;;;;17.63;6.20;;;;;;;;;;5036677;28;20203;-65
2022/03/17 06:02:13;;;;;;;12.90;6.13;;;;;;;;;;5036817;28;20287;-65
2022/03/17 06:04:44;;;;;;;12.07;5.50;;;;;;;;;;5036792;28;20210;-65
2022/03/17 06:07:12;;;;;;;20.53;5.87;;;;;;;;;;5039745;28;20314;-66
2022/03/17 06:09:40;;;;;;;9.37;5.77;;;;;;;;;;5041222;28;20287;-66
2022/03/17 06:12:09;;;;;;;11.10;5.20;;;;;;;;;;5040744;28;20246;-65
2022/03/17 06:14:37;;;;;;;18.90;6.50;;;;;;;;;;5039939;28;20203;-65
2022/03/17 06:17:07;;;;;;;13.47;5.87;;;;;;;;;;5040796;28;20306;-65
2022/03/17 06:19:35;;;;;;;10.63;5.53;;;;;;;;;;5037058;28;20196;-65
2022/03/17 06:22:03;;;;;;;15.47;6.50;;;;;;;;;;5033048;28;20295;-66
2022/03/17 06:24:31;;;;;;;15.23;6.17;;;;;;;;;;5040242;28;20250;-65
2022/03/17 06:26:59;;;;;;;13.33;6.17;;;;;;;;;;5038717;28;20235;-65
2022/03/17 06:29:27;;;;;;;14.00;6.23;;;;;;;;;;5034481;28;20253;-66
2022/03/17 06:31:56;;;;;;;12.47;5.50;;;;;;;;;;5036765;28;20263;-66
2022/03/17 06:34:26;;;;;;;11.67;6.30;;;;;;;;;;5043316;28;20227;-65
2022/03/17 06:36:54;;;;;;;16.20;6.17;;;;;;;;;;5047469;28;20261;-66
2022/03/17 06:39:22;;;;;;;11.83;6.07;;;;;;;;;;5044594;28;20250;-66
2022/03/17 06:41:50;;;;;;;10.97;5.17;;;;;;;;;;5040989;28;20287;-65
2022/03/17 06:44:18;;;;;;;11.10;6.73;;;;;;;;;;5039073;28;20282;-66
2022/03/17 06:46:46;;;;;;;16.87;6.33;;;;;;;;;;5038494;28;20267;-66
2022/03/17 06:49:14;;;;;;;11.10;5.87;;;;;;;;;;5039089;28;20195;-66
2022/03/17 06:51:43;;;;;;;12.53;6.00;;;;;;;;;;5039471;28;20633;-65
2022/03/17 06:54:11;;;;;;;13.00;5.37;;;;;;;;;;5040230;28;20282;-65
2022/03/17 06:56:39;;;;;;;10.13;5.90;;;;;;;;;;5031912;28;20262;-65
2022/03/17 06:59:07;;;;;;;17.80;6.27;;;;;;;;;;5050359;28;20280;-65
2022/03/17 07:01:35;;;;;;;17.47;5.50;;;;;;;;;;5038450;28;20263;-65
2022/03/17 07:04:03;;;;;;;17.73;6.40;;;;;;;;;;5046389;28;20658;-65
2022/03/17 07:06:31;;;;;;;12.50;5.43;;;;;;;;;;5037746;28;20232;-65
2022/03/17 07:09:01;;;;;;;14.73;6.23;;;;;;;;;;5031426;28;20235;-66
2022/03/17 07:11:29;;;;;;;13.00;6.27;;;;;;;;;;5039246;28;20294;-66
2022/03/17 07:13:57;;;;;;;12.07;5.90;;;;;;;;;;5045046;28;20293;-66
2022/03/17 07:16:25;;;;;;;18.93;5.73;;;;;;;;;;5044084;28;20254;-65
2022/03/17 07:18:53;;;;;;;13.33;6.20;;;;;;;;;;5038364;28;20627;-66
2022/03/17 07:21:21;;;;;;;14.53;6.30;;;;;;;;;;5037399;28;20203;-66
2022/03/17 07:23:49;;;;;;;9.17;6.10;;;;;;;;;;5038291;28;20238;-65
2022/03/17 07:26:19;;;;;;;15.47;6.07;;;;;;;;;;5038946;28;20311;-66
2022/03/17 07:28:48;;;;;;;14.00;7.63;;;;;;;;;;5039085;28;20282;-66
2022/03/17 07:31:17;;;;;;;10.67;6.10;;;;;;;;;;5039670;28;20572;-65
2022/03/17 07:33:45;;;;;;;14.53;5.90;;;;;;;;;;5038384;28;20199;-65
2022/03/17 07:36:13;;;;;;;11.73;5.90;;;;;;;;;;5038266;28;20255;-65
2022/03/17 07:38:41;;;;;;;27.17;7.20;;;;;;;;;;5044673;28;20195;-65
2022/03/17 07:41:10;;;;;;;15.53;6.90;;;;;;;;;;5055875;28;20199;-65
2022/03/17 07:43:40;;;;;;;10.93;5.87;;;;;;;;;;5051990;28;20223;-66
2022/03/17 07:46:08;;;;;;;14.03;6.23;;;;;;;;;;5053281;28;20659;-66
2022/03/17 07:48:36;;;;;;;10.60;6.07;;;;;;;;;;5051656;28;20195;-66
2022/03/17 07:51:04;;;;;;;13.30;6.23;;;;;;;;;;5055844;28;20234;-66
2022/03/17 07:53:32;;;;;;;10.30;6.33;;;;;;;;;;5053562;28;20226;-65
2022/03/17 07:56:00;;;;;;;18.80;6.80;;;;;;;;;;5049047;28;20266;-66
2022/03/17 07:58:28;;;;;;;13.37;6.73;;;;;;;;;;5049827;28;20231;-66
2022/03/17 08:00:58;;;;;;;10.17;6.13;;;;;;;;;;5039344;28;20267;-66
2022/03/17 08:03:26;;;;;;;14.37;7.40;;;;;;;;;;5038283;28;20200;-65
2022/03/17 08:05:55;;;;;;;12.00;6.43;;;;;;;;;;5038613;28;20232;-66
2022/03/17 08:08:23;;;;;;;12.37;7.27;;;;;;;;;;5054894;28;20398;-66
2022/03/17 08:10:51;;;;;;;16.63;7.13;;;;;;;;;;5056292;28;20238;-66
2022/03/17 08:13:19;;;;;;;13.23;7.23;;;;;;;;;;5048063;28;20207;-66
2022/03/17 08:15:47;;;;;;;13.30;7.20;;;;;;;;;;5056525;28;20286;-66
2022/03/17 08:18:16;;;;;;;13.80;6.77;;;;;;;;;;5054293;28;20199;-66
2022/03/17 08:20:44;;;;;;;15.90;7.93;;;;;;;;;;5050593;28;20227;-66
2022/03/17 08:23:16;;;;;;;16.37;7.20;;;;;;;;;;5025341;28;20246;-66
2022/03/17 08:25:44;;;;;;;18.37;7.10;;;;;;;;;;5038282;28;20387;-66
2022/03/17 08:28:11;;;;;;;13.83;6.67;;;;;;;;;;5039061;28;20270;-66
2022/03/17 08:30:39;;;;;;;13.77;6.40;;;;;;;;;;5027358;28;20688;-66
2022/03/17 08:33:07;;;;;;;12.77;7.13;;;;;;;;;;5035500;28;20271;-66
2022/03/17 08:35:41;;;;;;;14.57;7.60;;;;;;;;;;5038972;28;20228;-66
2022/03/17 08:38:09;;;;;;;9.10;6.90;;;;;;;;;;5053539;28;20236;-66
2022/03/17 08:40:40;;;;;;;16.77;7.83;;;;;;;;;;5051720;28;20261;-66
2022/03/17 08:43:12;;;;;;;15.07;6.90;;;;;;;;;;5040186;28;20195;-65
2022/03/17 08:51:13;;;;;;;14.53;7.00;;;;;;;;;;5041557;28;20567;-64
2022/03/17 08:53:41;;;;;;;15.87;7.07;;;;;;;;;;5037421;28;20633;-66
2022/03/17 08:56:09;;;;;;;20.07;6.93;;;;;;;;;;5037634;28;20227;-66
2022/03/17 08:58:38;;;;;;;16.00;6.47;;;;;;;;;;5039767;28;20232;-66
2022/03/17 09:01:07;;;;;;;16.93;6.60;;;;;;;;;;5039122;28;21112;-66
2022/03/17 09:03:35;;;;;;;13.23;6.20;;;;;;;;;;5041265;28;20211;-66
2022/03/17 09:06:03;;;;;;;18.07;5.83;;;;;;;;;;5037379;28;20317;-66
2022/03/17 09:08:32;;;;;;;16.37;7.07;;;;;;;;;;5037561;28;20319;-66
2022/03/17 09:11:00;;;;;;;11.03;6.70;;;;;;;;;;5036979;28;20260;-66
2022/03/17 09:13:29;;;;;;;18.27;6.13;;;;;;;;;;5037047;28;20228;-66
2022/03/17 09:15:56;;;;;;;14.77;6.07;;;;;;;;;;5037135;28;20261;-66
2022/03/17 09:18:27;;;;;;;12.70;5.93;;;;;;;;;;5036283;28;20223;-67
2022/03/17 09:20:56;;;;;;;12.77;6.10;;;;;;;;;;5037542;28;20200;-66
2022/03/17 09:23:24;;;;;;;14.77;5.67;;;;;;;;;;5035443;28;20262;-67
2022/03/17 09:25:54;;;;;;;13.40;6.80;;;;;;;;;;5037569;28;20668;-66
2022/03/17 09:28:22;;;;;;;16.77;6.90;;;;;;;;;;5040526;28;20306;-66
2022/03/17 09:30:50;;;;;;;11.53;5.87;;;;;;;;;;5038878;28;20265;-66
2022/03/17 09:33:19;;;;;;;11.57;6.23;;;;;;;;;;5042741;28;20685;-66
2022/03/17 09:35:48;;;;;;;14.47;7.13;;;;;;;;;;5036819;28;20662;-67
2022/03/17 09:38:16;;;;;;;15.87;6.53;;;;;;;;;;5037342;28;20234;-66
2022/03/17 09:40:45;;;;;;;13.43;5.83;;;;;;;;;;5044847;28;20231;-66
2022/03/17 09:43:21;;;;;;;24.17;7.43;;;;;;;;;;5041627;28;20290;-66
2022/03/17 09:45:51;;;;;;;16.37;7.37;;;;;;;;;;5043608;28;20772;-66
2022/03/17 09:48:20;;;;;;;12.73;6.20;;;;;;;;;;5044721;28;20700;-67
2022/03/17 09:50:53;;;;;;;11.03;6.23;;;;;;;;;;5041287;28;20290;-67
2022/03/17 09:53:26;;;;;;;12.53;6.40;;;;;;;;;;5040637;28;20689;-67
2022/03/17 09:55:54;;;;;;;16.50;7.00;;;;;;;;;;5039722;28;20223;-66
2022/03/17 09:58:24;;;;;;;15.63;6.67;;;;;;;;;;5040675;28;20633;-66
2022/03/17 10:00:53;;;;;;;15.00;6.57;;;;;;;;;;5041317;28;20286;-66
2022/03/17 10:03:25;;;;;;;16.23;7.37;;;;;;;;;;5040263;28;20257;-67
2022/03/17 10:05:54;;;;;;;19.53;7.37;;;;;;;;;;5046430;28;20231;-66
2022/03/17 10:08:23;;;;;;;15.43;7.50;;;;;;;;;;5040431;28;20291;-66
2022/03/17 10:10:52;;;;;;;16.63;7.23;;;;;;;;;;5044665;28;20282;-67
2022/03/17 10:13:21;;;;;;;19.13;6.87;;;;;;;;;;5052051;28;20659;-66
2022/03/17 10:16:06;;;;;;;19.03;7.60;;;;;;;;;;5042328;28;20254;-66
2022/03/17 10:18:37;;;;;;;21.93;6.83;;;;;;;;;;5040351;28;20290;-66
2022/03/17 10:21:06;;;;;;;17.03;7.07;;;;;;;;;;5040525;28;20211;-66
2022/03/17 10:23:35;;;;;;;16.90;7.17;;;;;;;;;;5040546;28;20238;-66
2022/03/17 10:26:06;;;;;;;12.53;7.53;;;;;;;;;;5040412;28;20232;-67
2022/03/17 10:28:34;;;;;;;22.37;7.53;;;;;;;;;;5053357;28;20255;-66
2022/03/17 10:31:04;;;;;;;16.87;7.83;;;;;;;;;;5040251;28;20741;-65
2022/03/17 10:33:33;;;;;;;15.80;7.13;;;;;;;;;;5049638;28;20281;-66
2022/03/17 10:36:14;;;;;;;30.73;8.60;;;;;;;;;;5041866;28;20357;-65
2022/03/17 10:38:44;;;;;;;14.40;7.27;;;;;;;;;;5037109;28;20637;-65
2022/03/17 10:41:13;;;;;;;13.13;7.83;;;;;;;;;;5039745;28;20207;-65
2022/03/17 10:43:42;;;;;;;23.63;8.20;;;;;;;;;;5039308;28;20226;-65
2022/03/17 10:46:12;;;;;;;19.57;8.17;;;;;;;;;;5039801;28;20266;-65
2022/03/17 10:49:05;;;;;;;22.13;8.30;;;;;;;;;;5039368;28;20220;-65
2022/03/17 10:51:34;;;;;;;21.07;8.57;;;;;;;;;;5028121;28;20302;-65
2022/03/17 10:54:03;;;;;;;16.10;7.90;;;;;;;;;;5038005;28;20235;-65
2022/03/17 10:56:31;;;;;;;14.30;8.43;;;;;;;;;;5035496;28;20318;-65
2022/03/17 10:58:59;;;;;;;16.13;8.17;;;;;;;;;;5037425;28;20241;-65
2022/03/17 11:01:47;;;;;;;25.23;9.23;;;;;;;;;;5037387;28;20214;-67
2022/03/17 11:04:16;;;;;;;15.40;8.20;;;;;;;;;;5039012;28;20200;-67
2022/03/17 11:06:44;;;;;;;17.27;7.63;;;;;;;;;;5041610;28;20243;-67
2022/03/17 11:09:12;;;;;;;18.07;8.43;;;;;;;;;;5053867;28;20233;-67
2022/03/17 11:11:40;;;;;;;15.07;7.57;;;;;;;;;;5044806;28;20292;-66
2022/03/17 11:14:09;;;;;;;19.47;7.63;;;;;;;;;;5049154;28;20635;-67
2022/03/17 11:16:39;;;;;;;20.13;7.53;;;;;;;;;;5045265;28;20688;-66
2022/03/17 11:19:12;;;;;;;18.93;8.60;;;;;;;;;;5039510;28;20204;-66
2022/03/17 11:21:45;;;;;;;17.37;8.07;;;;;;;;;;5039581;28;20211;-66
2022/03/17 11:24:18;;;;;;;15.50;8.30;;;;;;;;;;5039734;28;20291;-66
2022/03/17 11:26:46;;;;;;;14.73;8.73;;;;;;;;;;5051619;28;20262;-67
2022/03/17 11:29:15;;;;;;;18.07;9.40;;;;;;;;;;5039341;28;20310;-67
2022/03/17 11:32:08;;;;;;;18.30;8.37;;;;;;;;;;5039685;28;20262;-67
2022/03/17 11:34:48;;;;;;;17.33;9.43;;;;;;;;;;5026426;28;20285;-66
2022/03/17 11:37:21;;;;;;;16.07;8.63;;;;;;;;;;5041836;28;20310;-66
2022/03/17 11:39:50;;;;;;;14.60;8.17;;;;;;;;;;5040320;28;20238;-67
2022/03/17 11:42:32;;;;;;;17.10;8.50;;;;;;;;;;5043999;28;20207;-67
2022/03/17 11:45:11;;;;;;;23.83;8.50;;;;;;;;;;5051098;28;20234;-67
2022/03/17 11:47:44;;;;;;;24.23;9.33;;;;;;;;;;5042841;28;20314;-67
2022/03/17 11:50:28;;;;;;;16.33;9.47;;;;;;;;;;5039097;28;20250;-67
2022/03/17 11:53:00;;;;;;;17.37;9.43;;;;;;;;;;5038880;28;20227;-67
2022/03/17 11:55:32;;;;;;;15.03;9.13;;;;;;;;;;5042869;28;20254;-67
2022/03/17 11:58:19;;;;;;;18.93;9.17;;;;;;;;;;5042945;28;20299;-67
2022/03/17 12:00:47;;;;;;;21.87;9.97;;;;;;;;;;5038812;28;20249;-67
2022/03/17 12:03:25;;;;;;;25.97;10.27;;;;;;;;;;5038557;28;20287;-67
2022/03/17 12:06:08;;;;;;;22.57;10.10;;;;;;;;;;5038456;28;20270;-67
2022/03/17 12:08:36;;;;;;;21.43;11.10;;;;;;;;;;5042284;28;20286;-67
2022/03/17 12:11:08;;;;;;;21.60;10.27;;;;;;;;;;5046576;28;20246;-67
2022/03/17 12:13:36;;;;;;;27.50;11.20;;;;;;;;;;5053848;28;20247;-67
2022/03/17 12:16:05;;;;;;;20.97;10.77;;;;;;;;;;5041489;28;20223;-67
2022/03/17 12:18:52;;;;;;;22.27;10.07;;;;;;;;;;5038357;28;20219;-67
2022/03/17 12:21:41;;;;;;;18.20;9.83;;;;;;;;;;5026311;28;20227;-67
2022/03/17 12:24:09;;;;;;;18.83;10.47;;;;;;;;;;5038124;28;20289;-67
2022/03/17 12:26:37;;;;;;;23.80;12.07;;;;;;;;;;5047306;28;20254;-67
2022/03/17 12:29:07;;;;;;;22.37;12.00;;;;;;;;;;5040681;28;20259;-67
2022/03/17 12:31:35;;;;;;;24.00;12.00;;;;;;;;;;5027669;28;20207;-67
2022/03/17 12:34:04;;;;;;;22.60;11.20;;;;;;;;;;5039192;28;20270;-67
2022/03/17 12:36:34;;;;;;;22.77;12.27;;;;;;;;;;5039542;28;20255;-66
2022/03/17 12:39:02;;;;;;;20.60;11.63;;;;;;;;;;5047765;28;20631;-66
2022/03/17 12:41:30;;;;;;;26.57;12.07;;;;;;;;;;5052363;28;20234;-66
2022/03/17 12:44:00;;;;;;;22.73;12.43;;;;;;;;;;5047002;28;20246;-67
2022/03/17 12:46:28;;;;;;;19.43;10.43;;;;;;;;;;5048476;28;20278;-66
2022/03/17 12:49:06;;;;;;;19.90;10.80;;;;;;;;;;5046640;28;20203;-66
2022/03/17 12:51:36;;;;;;;20.03;11.57;;;;;;;;;;5037800;28;20215;-66
2022/03/17 12:54:05;;;;;;;22.27;10.87;;;;;;;;;;5037925;28;20234;-66
2022/03/17 12:56:46;;;;;;;20.17;10.90;;;;;;;;;;5046568;28;20224;-66
2022/03/17 12:59:14;;;;;;;23.27;10.77;;;;;;;;;;5037804;28;20290;-67
2022/03/17 13:01:42;;;;;;;19.20;10.37;;;;;;;;;;5038180;28;20243;-66
2022/03/17 13:04:10;;;;;;;19.90;10.17;;;;;;;;;;5037840;28;20663;-66
2022/03/17 13:06:55;;;;;;;19.00;10.47;;;;;;;;;;5038536;28;20238;-66
2022/03/17 13:09:30;;;;;;;15.97;10.07;;;;;;;;;;5039652;28;20318;-67
2022/03/17 13:14:48;;;;;;;17.70;10.60;;;;;;;;;;5039465;28;20235;-67
2022/03/17 13:17:16;;;;;;;19.33;12.73;;;;;;;;;;5047920;28;20219;-66
2022/03/17 13:19:45;;;;;;;19.03;11.30;;;;;;;;;;5042198;28;20208;-66
2022/03/17 13:22:22;;;;;;;17.23;10.40;;;;;;;;;;5037356;28;20235;-66
2022/03/17 13:24:59;;;;;;;21.90;11.50;;;;;;;;;;5037119;28;20294;-66
2022/03/17 13:27:27;;;;;;;17.90;11.03;;;;;;;;;;5039262;28;20234;-67
2022/03/17 13:29:55;;;;;;;21.50;11.33;;;;;;;;;;5046932;28;20258;-66
2022/03/17 13:32:25;;;;;;;20.43;11.90;;;;;;;;;;5036967;28;20239;-66
2022/03/17 13:34:59;;;;;;;18.50;11.00;;;;;;;;;;5048043;28;20245;-66
2022/03/17 13:37:36;;;;;;;21.20;11.30;;;;;;;;;;5037692;28;20202;-67
2022/03/17 13:40:04;;;;;;;16.30;10.77;;;;;;;;;;5037501;28;20203;-66
2022/03/17 13:42:32;;;;;;;22.70;11.50;;;;;;;;;;5043704;28;20226;-67
2022/03/17 13:45:00;;;;;;;19.97;13.13;;;;;;;;;;5044384;28;20694;-66
2022/03/17 13:47:59;;;;;;;19.73;11.30;;;;;;;;;;5035768;28;20226;-66
2022/03/17 13:50:28;;;;;;;20.93;11.00;;;;;;;;;;5036967;28;20227;-67
2022/03/17 13:52:58;;;;;;;14.77;11.27;;;;;;;;;;5032089;28;20203;-67
2022/03/17 13:55:32;;;;;;;19.57;11.13;;;;;;;;;;5036947;28;20227;-66
2022/03/17 13:58:09;;;;;;;17.97;11.40;;;;;;;;;;5043882;28;20203;-66
2022/03/17 14:00:37;;;;;;;17.23;10.40;;;;;;;;;;5037083;28;20283;-66
2022/03/17 14:03:12;;;;;;;21.90;10.20;;;;;;;;;;5035989;28;20208;-66
2022/03/17 14:05:59;;;;;;;26.07;10.17;;;;;;;;;;5037008;28;20718;-66
2022/03/17 14:08:29;;;;;;;17.60;10.60;;;;;;;;;;5035718;28;20214;-66
2022/03/17 14:10:57;;;;;;;16.50;10.13;;;;;;;;;;5037284;28;20255;-67
2022/03/17 14:13:25;;;;;;;19.57;10.93;;;;;;;;;;5053797;28;20203;-67
2022/03/17 14:15:53;;;;;;;15.13;10.27;;;;;;;;;;5038062;28;20262;-67
2022/03/17 14:18:22;;;;;;;15.27;10.13;;;;;;;;;;5041859;28;20239;-66
2022/03/17 14:20:50;;;;;;;21.43;10.13;;;;;;;;;;5036668;28;20677;-66
2022/03/17 14:26:01;;;;;;;17.30;10.07;;;;;;;;;;5014519;28;20322;-66
2022/03/17 14:28:29;;;;;;;16.87;10.20;;;;;;;;;;5051838;28;20690;-67
2022/03/17 14:30:57;;;;;;;16.27;9.17;;;;;;;;;;5040582;28;20683;-67
2022/03/17 14:33:25;;;;;;;18.33;10.07;;;;;;;;;;5040187;28;20595;-67
2022/03/17 14:35:53;;;;;;;18.60;10.60;;;;;;;;;;5040826;28;20263;-66
2022/03/17 14:38:21;;;;;;;14.10;9.60;;;;;;;;;;5040481;28;20208;-66
2022/03/17 14:40:49;;;;;;;17.73;10.17;;;;;;;;;;5047597;28;20640;-66
2022/03/17 14:43:18;;;;;;;14.73;9.67;;;;;;;;;;5056550;28;20238;-67
2022/03/17 14:45:46;;;;;;;18.90;10.33;;;;;;;;;;5035647;28;20247;-66
2022/03/17 14:48:15;;;;;;;20.03;10.40;;;;;;;;;;5047214;28;20207;-66
2022/03/17 14:50:43;;;;;;;17.03;9.47;;;;;;;;;;5040420;28;20314;-66
2022/03/17 14:53:11;;;;;;;17.83;10.93;;;;;;;;;;5039050;28;20235;-67
2022/03/17 14:55:39;;;;;;;16.77;9.50;;;;;;;;;;5039954;28;20314;-66
2022/03/17 14:58:07;;;;;;;16.50;10.23;;;;;;;;;;5040346;28;20712;-66
2022/03/17 15:00:36;;;;;;;13.97;9.37;;;;;;;;;;5049370;28;20666;-66
2022/03/17 15:03:05;;;;;;;17.30;8.90;;;;;;;;;;5038074;28;20290;-66
2022/03/17 15:05:34;;;;;;;16.53;9.60;;;;;;;;;;5038310;28;20262;-66
2022/03/17 15:08:02;;;;;;;12.00;9.00;;;;;;;;;;5038000;28;20273;-66
2022/03/17 15:10:30;;;;;;;18.30;8.63;;;;;;;;;;5038015;28;20267;-66